createdAt,value
2022-11-05T00:00:19.484Z,101363.47
2022-11-05T00:03:06.589Z,101359.28
2022-11-05T00:06:06.436Z,101369.59
2022-11-05T00:08:52.432Z,101361.56
2022-11-05T00:11:40.506Z,101367.44
2022-11-05T00:14:26.272Z,101369.28
2022-11-05T00:16:54.325Z,101362.34
2022-11-05T00:19:23.871Z,101371.00
2022-11-05T00:22:09.331Z,101373.50
2022-11-05T00:24:54.840Z,101370.00
2022-11-05T00:27:22.857Z,101369.66
2022-11-05T00:29:50.962Z,101372.97
2022-11-05T00:32:19.041Z,101376.34
2022-11-05T00:34:48.483Z,101375.31
2022-11-05T00:37:16.648Z,101390.84
2022-11-05T00:39:44.688Z,101379.38
2022-11-05T00:42:30.207Z,101372.22
2022-11-05T00:45:02.054Z,101373.56
2022-11-05T00:47:47.936Z,101373.56
2022-11-05T00:50:18.288Z,101374.34
2022-11-05T00:52:59.441Z,101381.28
2022-11-05T00:55:33.504Z,101384.78
2022-11-05T00:58:03.276Z,101384.78
2022-11-05T01:00:33.572Z,101386.38
2022-11-05T01:03:02.848Z,101391.72
2022-11-05T01:05:34.058Z,101384.66
2022-11-05T01:08:02.984Z,101385.66
2022-11-05T01:10:31.127Z,101391.44
2022-11-05T01:12:59.697Z,101391.31
2022-11-05T01:15:27.978Z,101399.03
2022-11-05T01:17:56.016Z,101399.16
2022-11-05T01:20:24.114Z,101400.00
2022-11-05T01:22:53.550Z,101395.13
2022-11-05T01:25:21.619Z,101401.34
2022-11-05T01:27:49.738Z,101405.69
2022-11-05T01:30:18.116Z,101411.78
2022-11-05T01:32:46.216Z,101403.28
2022-11-05T01:35:16.925Z,101409.59
2022-11-05T01:37:45.690Z,101414.84
2022-11-05T01:40:21.567Z,101413.84
2022-11-05T01:42:49.862Z,101408.03
2022-11-05T01:45:21.413Z,101411.66
2022-11-05T01:47:56.360Z,101407.47
2022-11-05T01:50:31.973Z,101417.09
2022-11-05T01:53:06.846Z,101417.34
2022-11-05T01:55:41.085Z,101425.28
2022-11-05T01:58:12.233Z,101412.41
2022-11-05T02:00:42.257Z,101423.13
2022-11-05T02:03:11.998Z,101417.91
2022-11-05T02:05:41.943Z,101423.19
2022-11-05T02:08:17.100Z,101419.06
2022-11-05T02:10:47.112Z,101419.16
2022-11-05T02:13:15.601Z,101416.28
2022-11-05T02:15:53.022Z,101417.34
2022-11-05T02:18:31.497Z,101416.66
2022-11-05T02:21:15.958Z,101409.63
2022-11-05T02:24:12.221Z,101403.94
2022-11-05T02:27:12.779Z,101404.69
2022-11-05T02:30:06.479Z,101407.47
2022-11-05T02:32:49.928Z,101399.63
2022-11-05T02:35:30.668Z,101409.22
2022-11-05T02:38:07.754Z,101403.28
2022-11-05T02:40:45.236Z,101404.66
2022-11-05T02:43:22.878Z,101404.72
2022-11-05T02:46:03.901Z,101399.44
2022-11-05T02:48:45.074Z,101401.34
2022-11-05T02:51:22.509Z,101400.53
2022-11-05T02:53:58.572Z,101398.09
2022-11-05T02:56:32.256Z,101401.56
2022-11-05T02:59:00.574Z,101397.53
2022-11-05T03:01:28.721Z,101395.44
2022-11-05T03:04:01.174Z,101394.03
2022-11-05T03:07:02.388Z,101391.56
2022-11-05T03:09:46.470Z,101401.38
2022-11-05T03:12:27.131Z,101400.44
2022-11-05T03:15:01.986Z,101402.28
2022-11-05T03:17:39.050Z,101405.72
2022-11-05T03:20:20.348Z,101402.56
2022-11-05T03:22:54.622Z,101406.84
2022-11-05T03:25:25.891Z,101405.31
2022-11-05T03:27:59.951Z,101400.91
2022-11-05T03:30:28.183Z,101398.09
2022-11-05T03:33:00.132Z,101395.88
2022-11-05T03:35:32.894Z,101395.09
2022-11-05T03:38:03.550Z,101404.59
2022-11-05T03:40:36.352Z,101401.22
2022-11-05T03:43:06.838Z,101405.72
2022-11-05T03:45:38.475Z,101407.53
2022-11-05T03:48:08.517Z,101403.09
2022-11-05T03:50:44.342Z,101410.16
2022-11-05T03:53:16.933Z,101414.47
2022-11-05T03:55:56.491Z,101413.88
2022-11-05T03:58:25.767Z,101417.19
2022-11-05T04:00:53.911Z,101421.56
2022-11-05T04:03:21.954Z,101424.47
2022-11-05T04:06:05.790Z,101428.06
2022-11-05T04:08:51.474Z,101427.25
2022-11-05T04:11:36.719Z,101428.31
2022-11-05T04:14:05.077Z,101430.13
2022-11-05T04:16:50.317Z,101425.09
2022-11-05T04:19:38.313Z,101424.75
2022-11-05T04:22:25.352Z,101425.63
2022-11-05T04:24:53.442Z,101431.63
2022-11-05T04:27:21.383Z,101428.50
2022-11-05T04:30:06.947Z,101430.56
2022-11-05T04:32:40.442Z,101436.44
2022-11-05T04:35:08.592Z,101433.06
2022-11-05T04:37:38.000Z,101439.00
2022-11-05T04:40:08.585Z,101446.22
2022-11-05T04:42:36.599Z,101452.38
2022-11-05T04:45:05.057Z,101445.69
2022-11-05T04:47:33.203Z,101443.94
2022-11-05T04:50:01.224Z,101444.84
2022-11-05T04:52:29.277Z,101447.44
2022-11-05T04:54:59.059Z,101451.84
2022-11-05T04:57:29.009Z,101445.72
2022-11-05T04:59:59.458Z,101450.09
2022-11-05T05:02:27.680Z,101443.19
2022-11-05T05:04:55.733Z,101448.56
2022-11-05T05:07:23.794Z,101453.81
2022-11-05T05:09:53.771Z,101451.03
2022-11-05T05:12:29.676Z,101456.38
2022-11-05T05:15:00.455Z,101462.44
2022-11-05T05:17:28.955Z,101470.31
2022-11-05T05:20:16.315Z,101467.97
2022-11-05T05:22:52.143Z,101477.59
2022-11-05T05:25:20.802Z,101471.31
2022-11-05T05:27:50.183Z,101477.56
2022-11-05T05:30:19.067Z,101474.19
2022-11-05T05:32:47.168Z,101478.34
2022-11-05T05:35:17.377Z,101475.78
2022-11-05T05:37:45.623Z,101483.59
2022-11-05T05:40:14.729Z,101477.84
2022-11-05T05:42:45.177Z,101476.81
2022-11-05T05:45:17.441Z,101480.50
2022-11-05T05:47:45.579Z,101488.22
2022-11-05T05:50:15.389Z,101481.41
2022-11-05T05:52:43.456Z,101474.50
2022-11-05T05:55:12.751Z,101477.22
2022-11-05T05:57:40.767Z,101485.22
2022-11-05T06:00:10.875Z,101481.88
2022-11-05T06:02:41.141Z,101477.56
2022-11-05T06:05:09.969Z,101477.34
2022-11-05T06:07:38.408Z,101473.28
2022-11-05T06:10:07.479Z,101470.72
2022-11-05T06:12:36.144Z,101476.75
2022-11-05T06:15:05.005Z,101472.44
2022-11-05T06:17:34.381Z,101483.50
2022-11-05T06:20:05.722Z,101470.63
2022-11-05T06:22:33.846Z,101482.81
2022-11-05T06:25:01.941Z,101476.66
2022-11-05T06:27:30.464Z,101487.06
2022-11-05T06:29:58.577Z,101487.91
2022-11-05T06:32:27.106Z,101486.19
2022-11-05T06:34:55.426Z,101487.97
2022-11-05T06:37:24.987Z,101485.28
2022-11-05T06:39:53.001Z,101480.28
2022-11-05T06:42:21.111Z,101482.00
2022-11-05T06:44:49.138Z,101487.16
2022-11-05T06:47:17.254Z,101491.53
2022-11-05T06:49:45.411Z,101505.38
2022-11-05T06:52:14.878Z,101508.03
2022-11-05T06:54:45.048Z,101498.38
2022-11-05T06:57:13.926Z,101521.75
2022-11-05T06:59:42.282Z,101523.38
2022-11-05T07:02:13.547Z,101520.06
2022-11-05T07:04:41.757Z,101527.88
2022-11-05T07:07:09.845Z,101530.34
2022-11-05T07:09:40.647Z,101530.84
2022-11-05T07:12:10.641Z,101531.50
2022-11-05T07:14:38.739Z,101526.69
2022-11-05T07:17:06.824Z,101529.09
2022-11-05T07:19:34.895Z,101532.22
2022-11-05T07:22:03.015Z,101539.78
2022-11-05T07:24:33.080Z,101543.63
2022-11-05T07:27:01.155Z,101542.38
2022-11-05T07:29:30.540Z,101547.00
2022-11-05T07:31:58.632Z,101547.16
2022-11-05T07:34:26.819Z,101541.31
2022-11-05T07:36:54.964Z,101540.31
2022-11-05T07:39:23.240Z,101543.25
2022-11-05T07:41:53.421Z,101542.72
2022-11-05T07:44:21.602Z,101547.56
2022-11-05T07:46:51.470Z,101551.13
2022-11-05T07:49:19.819Z,101550.78
2022-11-05T07:51:47.853Z,101542.53
2022-11-05T07:54:15.927Z,101546.34
2022-11-05T07:56:44.622Z,101548.09
2022-11-05T07:59:13.975Z,101552.75
2022-11-05T08:01:44.658Z,101546.94
2022-11-05T08:04:14.463Z,101550.69
2022-11-05T08:06:42.536Z,101562.66
2022-11-05T08:09:10.683Z,101559.06
2022-11-05T08:11:38.712Z,101554.19
2022-11-05T08:14:06.832Z,101556.38
2022-11-05T08:16:34.853Z,101551.16
2022-11-05T08:19:05.466Z,101556.75
2022-11-05T08:21:35.172Z,101558.00
2022-11-05T08:24:03.545Z,101554.31
2022-11-05T08:26:31.675Z,101554.84
2022-11-05T08:29:00.455Z,101553.91
2022-11-05T08:31:28.764Z,101541.53
2022-11-05T08:34:02.209Z,101552.81
2022-11-05T08:36:31.355Z,101554.88
2022-11-05T08:39:00.746Z,101544.97
2022-11-05T08:41:28.979Z,101548.50
2022-11-05T08:43:57.648Z,101544.22
2022-11-05T08:46:25.643Z,101548.31
2022-11-05T08:48:53.607Z,101548.06
2022-11-05T08:51:21.719Z,101548.56
2022-11-05T08:53:49.769Z,101555.19
2022-11-05T08:56:19.559Z,101550.13
2022-11-05T08:58:47.744Z,101555.94
2022-11-05T09:01:16.257Z,101556.53
2022-11-05T09:03:44.486Z,101556.50
2022-11-05T09:06:12.501Z,101552.75
2022-11-05T09:08:40.520Z,101552.34
2022-11-05T09:11:08.616Z,101558.41
2022-11-05T09:13:38.268Z,101561.59
2022-11-05T09:16:06.938Z,101554.97
2022-11-05T09:18:35.006Z,101551.69
2022-11-05T09:21:03.384Z,101559.34
2022-11-05T09:23:32.547Z,101560.72
2022-11-05T09:26:00.620Z,101559.53
2022-11-05T09:28:28.804Z,101565.88
2022-11-05T09:30:58.501Z,101565.72
2022-11-05T09:33:27.349Z,101571.91
2022-11-05T09:35:55.413Z,101570.75
2022-11-05T09:38:23.525Z,101577.75
2022-11-05T09:40:57.967Z,101568.09
2022-11-05T09:43:32.059Z,101574.53
2022-11-05T09:46:05.845Z,101577.56
2022-11-05T09:48:35.253Z,101582.47
2022-11-05T09:51:05.938Z,101581.63
2022-11-05T09:53:41.615Z,101582.72
2022-11-05T09:56:21.244Z,101582.09
2022-11-05T09:58:54.216Z,101582.66
2022-11-05T10:01:27.408Z,101579.28
2022-11-05T10:03:59.372Z,101587.63
2022-11-05T10:06:28.991Z,101587.69
2022-11-05T10:09:03.854Z,101588.63
2022-11-05T10:11:38.106Z,101594.88
2022-11-05T10:14:18.005Z,101592.88
2022-11-05T10:16:53.629Z,101589.75
2022-11-05T10:19:25.538Z,101588.97
2022-11-05T10:22:12.286Z,101586.22
2022-11-05T10:24:43.727Z,101593.66
2022-11-05T10:27:18.055Z,101593.66
2022-11-05T10:29:46.619Z,101599.28
2022-11-05T10:32:24.901Z,101594.47
2022-11-05T10:34:55.225Z,101595.53
2022-11-05T10:37:25.607Z,101589.91
2022-11-05T10:39:54.178Z,101586.19
2022-11-05T10:42:47.672Z,101596.19
2022-11-05T10:45:29.395Z,101590.53
2022-11-05T10:48:10.556Z,101588.41
2022-11-05T10:50:39.781Z,101588.53
2022-11-05T10:53:16.125Z,101586.63
2022-11-05T10:55:47.244Z,101586.63
2022-11-05T10:58:22.323Z,101590.44
2022-11-05T11:01:07.582Z,101592.75
2022-11-05T11:03:42.242Z,101585.44
2022-11-05T11:06:21.525Z,101583.91
2022-11-05T11:08:51.472Z,101579.06
2022-11-05T11:11:35.763Z,101583.41
2022-11-05T11:14:07.193Z,101581.84
2022-11-05T11:16:38.605Z,101586.50
2022-11-05T11:19:27.473Z,101587.34
2022-11-05T11:22:19.796Z,101597.28
2022-11-05T11:24:50.088Z,101592.91
2022-11-05T11:27:23.776Z,101593.88
2022-11-05T11:29:57.882Z,101589.59
2022-11-05T11:32:29.636Z,101586.06
2022-11-05T11:34:59.120Z,101596.09
2022-11-05T11:37:30.418Z,101594.88
2022-11-05T11:40:05.321Z,101596.47
2022-11-05T11:42:36.266Z,101592.31
2022-11-05T11:45:12.715Z,101592.03
2022-11-05T11:47:44.885Z,101590.44
2022-11-05T11:50:35.370Z,101592.06
2022-11-05T11:53:18.742Z,101589.59
2022-11-05T11:56:00.249Z,101587.34
2022-11-05T11:58:42.685Z,101581.88
2022-11-05T12:01:52.799Z,101589.44
2022-11-05T12:04:41.773Z,101588.28
2022-11-05T12:07:33.588Z,101578.13
2022-11-05T12:10:19.475Z,101581.78
2022-11-05T12:13:00.460Z,101577.16
2022-11-05T12:15:45.579Z,101581.72
2022-11-05T12:18:26.177Z,101576.72
2022-11-05T12:21:25.031Z,101580.47
2022-11-05T12:24:19.450Z,101585.38
2022-11-05T12:26:59.910Z,101578.81
2022-11-05T12:29:40.193Z,101571.00
2022-11-05T12:32:30.136Z,101584.53
2022-11-05T12:35:10.933Z,101586.59
2022-11-05T12:37:47.259Z,101587.47
2022-11-05T12:40:44.247Z,101591.53
2022-11-05T12:43:20.297Z,101583.13
2022-11-05T12:45:55.685Z,101578.88
2022-11-05T12:48:39.612Z,101578.22
2022-11-05T12:51:19.044Z,101575.84
2022-11-05T12:54:01.537Z,101569.25
2022-11-05T12:56:38.315Z,101571.44
2022-11-05T12:59:18.018Z,101559.84
2022-11-05T13:01:51.738Z,101552.81
2022-11-05T13:04:31.796Z,101546.56
2022-11-05T13:07:03.898Z,101538.97
2022-11-05T13:09:38.537Z,101542.22
2022-11-05T13:12:12.183Z,101544.88
2022-11-05T13:14:46.702Z,101551.00
2022-11-05T13:17:18.835Z,101544.03
2022-11-05T13:19:52.536Z,101540.25
2022-11-05T13:22:35.432Z,101531.78
2022-11-05T13:25:13.099Z,101532.63
2022-11-05T13:27:57.612Z,101533.66
2022-11-05T13:30:27.521Z,101536.47
2022-11-05T13:32:59.195Z,101540.25
2022-11-05T13:35:32.508Z,101533.16
2022-11-05T13:38:24.396Z,101534.88
2022-11-05T13:41:05.128Z,101528.41
2022-11-05T13:44:06.735Z,101519.88
2022-11-05T13:46:55.945Z,101514.88
2022-11-05T13:49:53.174Z,101505.16
2022-11-05T13:52:47.383Z,101511.75
2022-11-05T13:55:48.601Z,101501.13
2022-11-05T13:58:37.289Z,101499.44
2022-11-05T14:01:12.758Z,101500.84
2022-11-05T14:03:48.185Z,101497.63
2022-11-05T14:06:23.623Z,101498.00
2022-11-05T14:08:52.072Z,101509.47
2022-11-05T14:11:25.238Z,101500.53
2022-11-05T14:13:57.865Z,101496.41
2022-11-05T14:16:29.601Z,101502.13
2022-11-05T14:19:35.713Z,101509.38
2022-11-05T14:22:37.986Z,101503.06
2022-11-05T14:25:39.618Z,101495.19
2022-11-05T14:28:41.708Z,101496.00
2022-11-05T14:32:08.181Z,101494.06
2022-11-05T14:34:49.124Z,101500.88
2022-11-05T14:37:28.930Z,101504.69
2022-11-05T14:39:57.940Z,101499.56
2022-11-05T14:42:29.191Z,101502.94
2022-11-05T14:45:23.561Z,101499.75
2022-11-05T14:47:56.197Z,101503.22
2022-11-05T14:50:35.032Z,101502.06
2022-11-05T14:53:11.419Z,101501.56
2022-11-05T14:55:43.084Z,101493.63
2022-11-05T14:58:30.220Z,101487.44
2022-11-05T15:00:59.626Z,101491.91
2022-11-05T15:03:47.095Z,101480.09
2022-11-05T15:06:28.603Z,101483.78
2022-11-05T15:09:08.378Z,101475.31
2022-11-05T15:11:40.131Z,101488.22
2022-11-05T15:14:20.524Z,101488.06
2022-11-05T15:16:51.543Z,101496.34
2022-11-05T15:19:24.916Z,101482.50
2022-11-05T15:21:55.542Z,101487.66
2022-11-05T15:24:24.294Z,101489.78
2022-11-05T15:27:00.656Z,101492.28
2022-11-05T15:29:31.529Z,101502.81
2022-11-05T15:32:00.180Z,101500.50
2022-11-05T15:34:33.605Z,101491.41
2022-11-05T15:37:03.900Z,101498.66
2022-11-05T15:39:35.128Z,101491.44
2022-11-05T15:42:07.198Z,101489.31
2022-11-05T15:44:43.522Z,101489.91
2022-11-05T15:47:17.565Z,101493.31
2022-11-05T15:49:48.895Z,101492.03
2022-11-05T15:52:18.741Z,101490.34
2022-11-05T15:54:47.251Z,101488.91
2022-11-05T15:57:24.238Z,101486.34
2022-11-05T15:59:52.342Z,101490.16
2022-11-05T16:02:28.774Z,101486.94
2022-11-05T16:04:59.836Z,101489.06
2022-11-05T16:07:29.432Z,101489.22
2022-11-05T16:09:59.014Z,101485.88
2022-11-05T16:12:33.065Z,101484.16
2022-11-05T16:15:05.077Z,101486.59
2022-11-05T16:17:46.693Z,101477.19
2022-11-05T16:20:29.585Z,101483.81
2022-11-05T16:22:59.954Z,101487.78
2022-11-05T16:25:32.962Z,101478.81
2022-11-05T16:28:01.897Z,101470.06
2022-11-05T16:30:30.785Z,101479.03
2022-11-05T16:33:05.933Z,101477.88
2022-11-05T16:35:40.434Z,101479.13
2022-11-05T16:38:11.004Z,101480.06
2022-11-05T16:40:39.365Z,101484.63
2022-11-05T16:43:18.239Z,101475.72
2022-11-05T16:45:47.284Z,101467.53
2022-11-05T16:48:16.500Z,101473.09
2022-11-05T16:50:46.391Z,101473.88
2022-11-05T16:53:14.660Z,101467.00
2022-11-05T16:55:44.945Z,101465.91
2022-11-05T16:58:20.672Z,101466.28
2022-11-05T17:00:50.153Z,101468.88
2022-11-05T17:03:18.230Z,101463.63
2022-11-05T17:05:48.205Z,101466.06
2022-11-05T17:08:16.339Z,101461.81
2022-11-05T17:10:44.427Z,101464.63
2022-11-05T17:13:15.918Z,101475.13
2022-11-05T17:15:45.150Z,101463.75
2022-11-05T17:18:18.575Z,101471.31
2022-11-05T17:20:50.122Z,101471.41
2022-11-05T17:23:20.197Z,101475.06
2022-11-05T17:25:50.480Z,101472.50
2022-11-05T17:28:19.432Z,101476.97
2022-11-05T17:30:52.951Z,101474.44
2022-11-05T17:33:23.126Z,101469.66
2022-11-05T17:35:53.211Z,101469.66
2022-11-05T17:38:22.808Z,101475.38
2022-11-05T17:40:51.259Z,101474.25
2022-11-05T17:43:20.195Z,101470.66
2022-11-05T17:45:51.823Z,101471.28
2022-11-05T17:48:20.878Z,101469.75
2022-11-05T17:50:51.147Z,101478.31
2022-11-05T17:53:20.731Z,101469.00
2022-11-05T17:55:49.258Z,101474.63
2022-11-05T17:58:17.550Z,101465.13
2022-11-05T18:00:46.601Z,101465.91
2022-11-05T18:03:17.115Z,101470.22
2022-11-05T18:05:45.389Z,101463.28
2022-11-05T18:08:13.476Z,101470.13
2022-11-05T18:10:43.207Z,101466.66
2022-11-05T18:13:12.299Z,101479.56
2022-11-05T18:15:41.423Z,101473.53
2022-11-05T18:18:10.291Z,101482.88
2022-11-05T18:20:38.688Z,101486.38
2022-11-05T18:23:06.878Z,101488.13
2022-11-05T18:25:34.956Z,101488.38
2022-11-05T18:28:04.744Z,101484.88
2022-11-05T18:30:32.906Z,101476.91
2022-11-05T18:33:01.301Z,101476.25
2022-11-05T18:35:29.421Z,101474.81
2022-11-05T18:37:57.424Z,101476.09
2022-11-05T18:40:25.452Z,101476.41
2022-11-05T18:42:53.564Z,101458.25
2022-11-05T18:45:28.470Z,101462.34
2022-11-05T18:47:57.754Z,101457.88
2022-11-05T18:50:25.861Z,101451.91
2022-11-05T18:52:53.949Z,101450.16
2022-11-05T18:55:22.275Z,101452.06
2022-11-05T18:57:55.391Z,101454.63
2022-11-05T19:00:24.891Z,101449.72
2022-11-05T19:02:53.017Z,101446.91
2022-11-05T19:05:29.028Z,101448.53
2022-11-05T19:07:57.959Z,101438.09
2022-11-05T19:10:26.029Z,101440.88
2022-11-05T19:12:54.397Z,101440.72
2022-11-05T19:15:22.423Z,101434.44
2022-11-05T19:17:51.821Z,101442.56
2022-11-05T19:20:20.028Z,101443.66
2022-11-05T19:22:48.402Z,101445.28
2022-11-05T19:25:16.738Z,101441.88
2022-11-05T19:27:45.241Z,101427.59
2022-11-05T19:30:13.628Z,101437.16
2022-11-05T19:32:42.010Z,101438.25
2022-11-05T19:35:12.116Z,101434.88
2022-11-05T19:37:40.206Z,101428.00
2022-11-05T19:40:10.354Z,101427.91
2022-11-05T19:42:38.462Z,101427.13
2022-11-05T19:45:30.274Z,101430.91
2022-11-05T19:47:55.778Z,101436.97
2022-11-05T19:50:25.146Z,101434.34
2022-11-05T19:52:53.352Z,101428.91
2022-11-05T19:55:21.330Z,101422.97
2022-11-05T19:57:49.476Z,101424.84
2022-11-05T20:00:18.115Z,101410.91
2022-11-05T20:02:46.558Z,101413.41
2022-11-05T20:05:15.708Z,101399.56
2022-11-05T20:07:49.794Z,101404.00
2022-11-05T20:10:20.793Z,101411.09
2022-11-05T20:12:48.772Z,101419.13
2022-11-05T20:15:18.747Z,101423.91
2022-11-05T20:17:50.160Z,101421.66
2022-11-05T20:20:18.652Z,101421.91
2022-11-05T20:22:48.064Z,101420.50
2022-11-05T20:25:16.299Z,101433.06
2022-11-05T20:27:47.344Z,101431.00
2022-11-05T20:30:15.556Z,101442.31
2022-11-05T20:32:43.630Z,101443.22
2022-11-05T20:35:12.173Z,101445.00
2022-11-05T20:37:40.272Z,101443.13
2022-11-05T20:40:11.125Z,101435.44
2022-11-05T20:42:39.251Z,101438.97
2022-11-05T20:45:08.123Z,101430.25
2022-11-05T20:47:36.593Z,101433.97
2022-11-05T20:50:05.693Z,101430.56
2022-11-05T20:52:34.812Z,101425.22
2022-11-05T20:55:03.373Z,101427.34
2022-11-05T20:57:32.944Z,101424.16
2022-11-05T21:00:01.107Z,101412.81
2022-11-05T21:02:29.279Z,101413.66
2022-11-05T21:04:57.468Z,101421.31
2022-11-05T21:07:25.453Z,101429.97
2022-11-05T21:09:53.427Z,101426.72
2022-11-05T21:12:23.145Z,101432.97
2022-11-05T21:14:53.159Z,101436.44
2022-11-05T21:17:21.260Z,101438.38
2022-11-05T21:19:49.270Z,101436.97
2022-11-05T21:22:17.362Z,101433.41
2022-11-05T21:24:45.434Z,101437.91
2022-11-05T21:27:13.428Z,101438.28
2022-11-05T21:29:41.570Z,101430.56
2022-11-05T21:32:11.709Z,101423.59
2022-11-05T21:34:39.768Z,101426.91
2022-11-05T21:37:07.893Z,101442.72
2022-11-05T21:39:35.933Z,101443.59
2022-11-05T21:42:03.995Z,101436.72
2022-11-05T21:44:32.283Z,101439.19
2022-11-05T21:47:00.655Z,101433.72
2022-11-05T21:49:30.196Z,101436.66
2022-11-05T21:52:23.881Z,101422.44
2022-11-05T21:55:09.586Z,101422.38
2022-11-05T21:57:54.921Z,101419.59
2022-11-05T22:00:23.055Z,101412.13
2022-11-05T22:02:51.363Z,101409.50
2022-11-05T22:05:21.203Z,101394.91
2022-11-05T22:07:49.304Z,101402.69
2022-11-05T22:10:17.666Z,101401.16
2022-11-05T22:12:46.245Z,101398.72
2022-11-05T22:15:14.555Z,101396.91
2022-11-05T22:17:46.641Z,101395.34
2022-11-05T22:20:15.856Z,101382.00
2022-11-05T22:22:45.616Z,101380.81
2022-11-05T22:25:14.522Z,101376.53
2022-11-05T22:27:43.991Z,101370.50
2022-11-05T22:30:13.811Z,101364.50
2022-11-05T22:32:41.904Z,101364.78
2022-11-05T22:35:10.753Z,101362.78
2022-11-05T22:37:38.789Z,101365.47
2022-11-05T22:40:09.705Z,101369.56
2022-11-05T22:42:37.944Z,101372.28
2022-11-05T22:45:07.343Z,101390.63
2022-11-05T22:47:35.558Z,101377.72
2022-11-05T22:50:04.060Z,101374.63
2022-11-05T22:52:32.729Z,101373.03
2022-11-05T22:55:02.697Z,101366.22
2022-11-05T22:57:32.552Z,101370.69
2022-11-05T23:00:00.652Z,101371.97
2022-11-05T23:02:28.786Z,101370.34
2022-11-05T23:04:56.985Z,101362.22
2022-11-05T23:07:42.708Z,101360.75
2022-11-05T23:10:28.453Z,101356.34
2022-11-05T23:12:58.173Z,101349.47
2022-11-05T23:15:43.699Z,101349.09
2022-11-05T23:18:29.623Z,101344.84
2022-11-05T23:21:17.999Z,101345.53
2022-11-05T23:24:07.795Z,101340.22
2022-11-05T23:26:53.705Z,101330.72
2022-11-05T23:29:27.415Z,101325.56
2022-11-05T23:32:13.294Z,101328.03
2022-11-05T23:34:41.495Z,101333.63
2022-11-05T23:37:27.360Z,101325.91
2022-11-05T23:39:55.755Z,101321.69
2022-11-05T23:42:41.308Z,101325.13
2022-11-05T23:45:29.168Z,101327.75
2022-11-05T23:48:14.533Z,101321.69
2022-11-05T23:50:43.911Z,101317.44
2022-11-05T23:53:11.981Z,101307.00
2022-11-05T23:55:40.659Z,101320.25
2022-11-05T23:58:09.396Z,101316.56
